sensor_id;sensor_type;location;lat;lon;timestamp;P1;durP1;ratioP1;P2;durP2;ratioP2
57889;SDS011;43707;50.184;18.966;2023-03-14T00:00:32;0.20;;;0.20;;
57889;SDS011;43707;50.184;18.966;2023-03-14T00:02:57;0.20;;;0.20;;
57889;SDS011;43707;50.184;18.966;2023-03-14T00:05:22;0.10;;;0.10;;
57889;SDS011;43707;50.184;18.966;2023-03-14T00:07:48;0.10;;;0.10;;
57889;SDS011;43707;50.184;18.966;2023-03-14T00:10:13;0.30;;;0.20;;
57889;SDS011;43707;50.184;18.966;2023-03-14T00:12:40;0.40;;;0.10;;
57889;SDS011;43707;50.184;18.966;2023-03-14T00:15:06;0.30;;;0.20;;
57889;SDS011;43707;50.184;18.966;2023-03-14T00:17:33;0.10;;;0.10;;
57889;SDS011;43707;50.184;18.966;2023-03-14T00:19:59;0.20;;;0.10;;
57889;SDS011;43707;50.184;18.966;2023-03-14T00:22:36;0.30;;;0.20;;
57889;SDS011;43707;50.184;18.966;2023-03-14T00:25:02;0.40;;;0.20;;
57889;SDS011;43707;50.184;18.966;2023-03-14T00:27:29;0.20;;;0.20;;
57889;SDS011;43707;50.184;18.966;2023-03-14T00:29:54;0.70;;;0.30;;
57889;SDS011;43707;50.184;18.966;2023-03-14T00:32:20;0.40;;;0.20;;
57889;SDS011;43707;50.184;18.966;2023-03-14T00:34:45;0.30;;;0.20;;
57889;SDS011;43707;50.184;18.966;2023-03-14T00:37:11;0.20;;;0.20;;
57889;SDS011;43707;50.184;18.966;2023-03-14T00:39:36;0.20;;;0.20;;
57889;SDS011;43707;50.184;18.966;2023-03-14T00:42:01;0.30;;;0.30;;
57889;SDS011;43707;50.184;18.966;2023-03-14T00:44:27;0.40;;;0.20;;
57889;SDS011;43707;50.184;18.966;2023-03-14T00:46:52;0.40;;;0.30;;
57889;SDS011;43707;50.184;18.966;2023-03-14T00:49:18;0.30;;;0.20;;
57889;SDS011;43707;50.184;18.966;2023-03-14T00:51:43;0.30;;;0.30;;
57889;SDS011;43707;50.184;18.966;2023-03-14T00:54:09;0.20;;;0.20;;
57889;SDS011;43707;50.184;18.966;2023-03-14T00:56:34;0.40;;;0.20;;
57889;SDS011;43707;50.184;18.966;2023-03-14T00:59:00;0.30;;;0.20;;
57889;SDS011;43707;50.184;18.966;2023-03-14T01:01:25;0.40;;;0.30;;
57889;SDS011;43707;50.184;18.966;2023-03-14T01:03:51;0.20;;;0.20;;
57889;SDS011;43707;50.184;18.966;2023-03-14T01:06:18;0.20;;;0.10;;
57889;SDS011;43707;50.184;18.966;2023-03-14T01:08:46;0.20;;;0.10;;
57889;SDS011;43707;50.184;18.966;2023-03-14T01:11:13;0.10;;;0.10;;
57889;SDS011;43707;50.184;18.966;2023-03-14T01:13:40;0.10;;;0.10;;
57889;SDS011;43707;50.184;18.966;2023-03-14T01:16:07;0.10;;;0.10;;
57889;SDS011;43707;50.184;18.966;2023-03-14T01:18:33;0.10;;;0.10;;
57889;SDS011;43707;50.184;18.966;2023-03-14T01:21:24;0.20;;;0.20;;
57889;SDS011;43707;50.184;18.966;2023-03-14T01:23:49;0.10;;;0.10;;
57889;SDS011;43707;50.184;18.966;2023-03-14T01:26:17;3.80;;;0.10;;
57889;SDS011;43707;50.184;18.966;2023-03-14T01:28:48;0.10;;;0.10;;
57889;SDS011;43707;50.184;18.966;2023-03-14T01:31:14;0.20;;;0.10;;
57889;SDS011;43707;50.184;18.966;2023-03-14T01:33:40;0.10;;;0.10;;
57889;SDS011;43707;50.184;18.966;2023-03-14T01:36:06;0.10;;;0.10;;
57889;SDS011;43707;50.184;18.966;2023-03-14T01:38:32;0.10;;;0.10;;
57889;SDS011;43707;50.184;18.966;2023-03-14T01:40:58;0.10;;;0.00;;
57889;SDS011;43707;50.184;18.966;2023-03-14T01:43:24;0.20;;;0.20;;
57889;SDS011;43707;50.184;18.966;2023-03-14T01:48:36;0.20;;;0.10;;
57889;SDS011;43707;50.184;18.966;2023-03-14T01:53:33;0.40;;;0.20;;
57889;SDS011;43707;50.184;18.966;2023-03-14T01:55:59;1.20;;;0.10;;
57889;SDS011;43707;50.184;18.966;2023-03-14T01:58:25;3.30;;;0.20;;
57889;SDS011;43707;50.184;18.966;2023-03-14T02:00:56;0.90;;;0.20;;
57889;SDS011;43707;50.184;18.966;2023-03-14T02:03:22;1.30;;;0.20;;
57889;SDS011;43707;50.184;18.966;2023-03-14T02:05:48;0.70;;;0.20;;
57889;SDS011;43707;50.184;18.966;2023-03-14T02:08:15;0.30;;;0.20;;
57889;SDS011;43707;50.184;18.966;2023-03-14T02:10:44;0.20;;;0.20;;
57889;SDS011;43707;50.184;18.966;2023-03-14T02:13:11;0.60;;;0.20;;
57889;SDS011;43707;50.184;18.966;2023-03-14T02:15:36;0.30;;;0.20;;
57889;SDS011;43707;50.184;18.966;2023-03-14T02:18:03;0.20;;;0.10;;
57889;SDS011;43707;50.184;18.966;2023-03-14T02:22:59;1.80;;;0.20;;
57889;SDS011;43707;50.184;18.966;2023-03-14T02:28:14;0.20;;;0.10;;
57889;SDS011;43707;50.184;18.966;2023-03-14T02:30:40;0.50;;;0.30;;
57889;SDS011;43707;50.184;18.966;2023-03-14T02:33:07;0.30;;;0.10;;
57889;SDS011;43707;50.184;18.966;2023-03-14T02:35:48;0.20;;;0.20;;
57889;SDS011;43707;50.184;18.966;2023-03-14T02:38:17;0.20;;;0.20;;
57889;SDS011;43707;50.184;18.966;2023-03-14T02:40:50;0.70;;;0.40;;
57889;SDS011;43707;50.184;18.966;2023-03-14T02:43:16;0.30;;;0.30;;
57889;SDS011;43707;50.184;18.966;2023-03-14T02:45:45;0.30;;;0.10;;
57889;SDS011;43707;50.184;18.966;2023-03-14T02:48:16;0.20;;;0.20;;
57889;SDS011;43707;50.184;18.966;2023-03-14T02:50:45;0.20;;;0.20;;
57889;SDS011;43707;50.184;18.966;2023-03-14T02:53:13;0.10;;;0.10;;
57889;SDS011;43707;50.184;18.966;2023-03-14T02:55:44;0.40;;;0.20;;
57889;SDS011;43707;50.184;18.966;2023-03-14T02:58:11;0.20;;;0.20;;
57889;SDS011;43707;50.184;18.966;2023-03-14T03:00:37;0.30;;;0.20;;
57889;SDS011;43707;50.184;18.966;2023-03-14T03:03:03;0.40;;;0.30;;
57889;SDS011;43707;50.184;18.966;2023-03-14T03:05:30;0.10;;;0.10;;
57889;SDS011;43707;50.184;18.966;2023-03-14T03:07:56;0.20;;;0.20;;
57889;SDS011;43707;50.184;18.966;2023-03-14T03:10:22;0.50;;;0.20;;
57889;SDS011;43707;50.184;18.966;2023-03-14T03:12:48;0.60;;;0.20;;
57889;SDS011;43707;50.184;18.966;2023-03-14T03:15:13;0.70;;;0.30;;
57889;SDS011;43707;50.184;18.966;2023-03-14T03:17:39;0.70;;;0.30;;
57889;SDS011;43707;50.184;18.966;2023-03-14T03:20:04;0.50;;;0.20;;
57889;SDS011;43707;50.184;18.966;2023-03-14T03:22:31;1.90;;;0.40;;
57889;SDS011;43707;50.184;18.966;2023-03-14T03:24:56;1.20;;;0.50;;
57889;SDS011;43707;50.184;18.966;2023-03-14T03:27:22;1.30;;;0.60;;
57889;SDS011;43707;50.184;18.966;2023-03-14T03:29:47;1.50;;;0.50;;
57889;SDS011;43707;50.184;18.966;2023-03-14T03:32:12;0.60;;;0.50;;
57889;SDS011;43707;50.184;18.966;2023-03-14T03:34:38;0.60;;;0.30;;
57889;SDS011;43707;50.184;18.966;2023-03-14T03:37:03;0.80;;;0.30;;
57889;SDS011;43707;50.184;18.966;2023-03-14T03:39:28;0.90;;;0.40;;
57889;SDS011;43707;50.184;18.966;2023-03-14T03:41:54;0.50;;;0.20;;
57889;SDS011;43707;50.184;18.966;2023-03-14T03:44:19;0.70;;;0.30;;
57889;SDS011;43707;50.184;18.966;2023-03-14T03:46:44;0.40;;;0.20;;
57889;SDS011;43707;50.184;18.966;2023-03-14T03:49:10;0.80;;;0.30;;
57889;SDS011;43707;50.184;18.966;2023-03-14T03:51:36;0.10;;;0.10;;
57889;SDS011;43707;50.184;18.966;2023-03-14T03:54:01;0.20;;;0.20;;
57889;SDS011;43707;50.184;18.966;2023-03-14T03:56:27;0.10;;;0.10;;
57889;SDS011;43707;50.184;18.966;2023-03-14T03:58:52;0.50;;;0.20;;
57889;SDS011;43707;50.184;18.966;2023-03-14T04:01:18;0.20;;;0.20;;
57889;SDS011;43707;50.184;18.966;2023-03-14T04:03:43;0.10;;;0.10;;
57889;SDS011;43707;50.184;18.966;2023-03-14T04:06:09;0.50;;;0.20;;
57889;SDS011;43707;50.184;18.966;2023-03-14T04:08:37;0.30;;;0.10;;
57889;SDS011;43707;50.184;18.966;2023-03-14T04:11:03;0.20;;;0.10;;
57889;SDS011;43707;50.184;18.966;2023-03-14T04:13:29;0.30;;;0.00;;
57889;SDS011;43707;50.184;18.966;2023-03-14T04:15:55;0.10;;;0.10;;
57889;SDS011;43707;50.184;18.966;2023-03-14T04:18:21;0.30;;;0.20;;
57889;SDS011;43707;50.184;18.966;2023-03-14T04:20:50;10.80;;;0.20;;
57889;SDS011;43707;50.184;18.966;2023-03-14T04:25:45;0.20;;;0.10;;
57889;SDS011;43707;50.184;18.966;2023-03-14T04:28:11;0.10;;;0.10;;
57889;SDS011;43707;50.184;18.966;2023-03-14T04:30:36;0.20;;;0.10;;
57889;SDS011;43707;50.184;18.966;2023-03-14T04:33:01;0.60;;;0.20;;
57889;SDS011;43707;50.184;18.966;2023-03-14T04:35:27;0.10;;;0.10;;
57889;SDS011;43707;50.184;18.966;2023-03-14T04:37:52;0.10;;;0.10;;
57889;SDS011;43707;50.184;18.966;2023-03-14T04:40:18;0.20;;;0.10;;
57889;SDS011;43707;50.184;18.966;2023-03-14T04:42:43;0.10;;;0.10;;
57889;SDS011;43707;50.184;18.966;2023-03-14T04:45:09;0.10;;;0.10;;
57889;SDS011;43707;50.184;18.966;2023-03-14T04:47:34;0.00;;;0.00;;
57889;SDS011;43707;50.184;18.966;2023-03-14T04:50:00;0.10;;;0.10;;
57889;SDS011;43707;50.184;18.966;2023-03-14T04:52:26;0.10;;;0.10;;
57889;SDS011;43707;50.184;18.966;2023-03-14T04:54:52;0.20;;;0.10;;
57889;SDS011;43707;50.184;18.966;2023-03-14T04:57:17;0.20;;;0.20;;
57889;SDS011;43707;50.184;18.966;2023-03-14T04:59:43;0.10;;;0.10;;
57889;SDS011;43707;50.184;18.966;2023-03-14T05:02:08;0.10;;;0.10;;
57889;SDS011;43707;50.184;18.966;2023-03-14T05:04:34;0.40;;;0.20;;
57889;SDS011;43707;50.184;18.966;2023-03-14T05:06:59;0.10;;;0.10;;
57889;SDS011;43707;50.184;18.966;2023-03-14T05:09:25;0.90;;;0.20;;
57889;SDS011;43707;50.184;18.966;2023-03-14T05:11:50;0.10;;;0.10;;
57889;SDS011;43707;50.184;18.966;2023-03-14T05:14:16;0.10;;;0.10;;
57889;SDS011;43707;50.184;18.966;2023-03-14T05:16:41;0.10;;;0.10;;
57889;SDS011;43707;50.184;18.966;2023-03-14T05:19:07;0.10;;;0.10;;
57889;SDS011;43707;50.184;18.966;2023-03-14T05:21:32;0.20;;;0.10;;
57889;SDS011;43707;50.184;18.966;2023-03-14T05:23:57;0.10;;;0.10;;
57889;SDS011;43707;50.184;18.966;2023-03-14T05:26:23;0.00;;;0.00;;
57889;SDS011;43707;50.184;18.966;2023-03-14T05:28:48;0.10;;;0.10;;
57889;SDS011;43707;50.184;18.966;2023-03-14T05:31:14;0.10;;;0.10;;
57889;SDS011;43707;50.184;18.966;2023-03-14T05:33:39;0.10;;;0.10;;
57889;SDS011;43707;50.184;18.966;2023-03-14T05:36:05;1.20;;;0.20;;
57889;SDS011;43707;50.184;18.966;2023-03-14T05:38:31;0.30;;;0.10;;
57889;SDS011;43707;50.184;18.966;2023-03-14T05:40:56;0.20;;;0.20;;
57889;SDS011;43707;50.184;18.966;2023-03-14T05:43:21;0.10;;;0.10;;
57889;SDS011;43707;50.184;18.966;2023-03-14T05:45:47;0.30;;;0.10;;
57889;SDS011;43707;50.184;18.966;2023-03-14T05:48:12;0.20;;;0.20;;
57889;SDS011;43707;50.184;18.966;2023-03-14T05:50:38;0.10;;;0.10;;
57889;SDS011;43707;50.184;18.966;2023-03-14T05:53:03;0.50;;;0.10;;
57889;SDS011;43707;50.184;18.966;2023-03-14T05:55:29;0.10;;;0.00;;
57889;SDS011;43707;50.184;18.966;2023-03-14T05:57:54;0.20;;;0.10;;
57889;SDS011;43707;50.184;18.966;2023-03-14T06:00:20;0.10;;;0.10;;
57889;SDS011;43707;50.184;18.966;2023-03-14T06:02:46;0.10;;;0.10;;
57889;SDS011;43707;50.184;18.966;2023-03-14T06:05:11;0.10;;;0.10;;
57889;SDS011;43707;50.184;18.966;2023-03-14T06:07:36;0.20;;;0.20;;
57889;SDS011;43707;50.184;18.966;2023-03-14T06:10:02;0.40;;;0.20;;
57889;SDS011;43707;50.184;18.966;2023-03-14T06:12:28;0.20;;;0.20;;
57889;SDS011;43707;50.184;18.966;2023-03-14T06:14:53;0.80;;;0.10;;
57889;SDS011;43707;50.184;18.966;2023-03-14T06:17:19;0.20;;;0.20;;
57889;SDS011;43707;50.184;18.966;2023-03-14T06:19:44;0.60;;;0.20;;
57889;SDS011;43707;50.184;18.966;2023-03-14T06:22:09;0.40;;;0.20;;
57889;SDS011;43707;50.184;18.966;2023-03-14T06:24:35;0.20;;;0.20;;
57889;SDS011;43707;50.184;18.966;2023-03-14T06:27:00;0.20;;;0.20;;
57889;SDS011;43707;50.184;18.966;2023-03-14T06:29:28;0.40;;;0.20;;
57889;SDS011;43707;50.184;18.966;2023-03-14T06:31:54;0.20;;;0.20;;
57889;SDS011;43707;50.184;18.966;2023-03-14T06:34:20;0.30;;;0.20;;
57889;SDS011;43707;50.184;18.966;2023-03-14T06:36:45;0.40;;;0.20;;
57889;SDS011;43707;50.184;18.966;2023-03-14T06:39:10;0.10;;;0.10;;
57889;SDS011;43707;50.184;18.966;2023-03-14T06:41:36;0.20;;;0.20;;
57889;SDS011;43707;50.184;18.966;2023-03-14T06:44:01;0.60;;;0.40;;
57889;SDS011;43707;50.184;18.966;2023-03-14T06:46:26;0.30;;;0.30;;
57889;SDS011;43707;50.184;18.966;2023-03-14T06:48:52;1.40;;;0.30;;
57889;SDS011;43707;50.184;18.966;2023-03-14T06:51:18;0.40;;;0.30;;
57889;SDS011;43707;50.184;18.966;2023-03-14T06:53:43;0.40;;;0.20;;
57889;SDS011;43707;50.184;18.966;2023-03-14T06:56:09;0.90;;;0.40;;
57889;SDS011;43707;50.184;18.966;2023-03-14T06:58:34;0.40;;;0.30;;
57889;SDS011;43707;50.184;18.966;2023-03-14T07:00:59;0.20;;;0.20;;
57889;SDS011;43707;50.184;18.966;2023-03-14T07:03:25;7.80;;;0.30;;
57889;SDS011;43707;50.184;18.966;2023-03-14T07:05:51;0.60;;;0.30;;
57889;SDS011;43707;50.184;18.966;2023-03-14T07:08:17;0.30;;;0.20;;
57889;SDS011;43707;50.184;18.966;2023-03-14T07:10:43;0.20;;;0.10;;
57889;SDS011;43707;50.184;18.966;2023-03-14T07:13:08;0.20;;;0.20;;
57889;SDS011;43707;50.184;18.966;2023-03-14T07:15:34;0.20;;;0.20;;
57889;SDS011;43707;50.184;18.966;2023-03-14T07:17:59;0.20;;;0.20;;
57889;SDS011;43707;50.184;18.966;2023-03-14T07:20:24;0.10;;;0.10;;
57889;SDS011;43707;50.184;18.966;2023-03-14T07:22:50;0.30;;;0.10;;
57889;SDS011;43707;50.184;18.966;2023-03-14T07:25:16;0.20;;;0.20;;
57889;SDS011;43707;50.184;18.966;2023-03-14T07:27:45;0.70;;;0.20;;
57889;SDS011;43707;50.184;18.966;2023-03-14T07:30:12;0.10;;;0.10;;
57889;SDS011;43707;50.184;18.966;2023-03-14T07:32:38;0.80;;;0.20;;
57889;SDS011;43707;50.184;18.966;2023-03-14T07:35:03;0.50;;;0.20;;
57889;SDS011;43707;50.184;18.966;2023-03-14T07:37:29;0.20;;;0.10;;
57889;SDS011;43707;50.184;18.966;2023-03-14T07:39:54;0.20;;;0.20;;
57889;SDS011;43707;50.184;18.966;2023-03-14T07:42:20;0.10;;;0.10;;
57889;SDS011;43707;50.184;18.966;2023-03-14T07:44:45;1.50;;;0.10;;
57889;SDS011;43707;50.184;18.966;2023-03-14T07:47:11;2.60;;;0.10;;
57889;SDS011;43707;50.184;18.966;2023-03-14T07:49:36;0.30;;;0.20;;
57889;SDS011;43707;50.184;18.966;2023-03-14T07:52:01;0.20;;;0.20;;
57889;SDS011;43707;50.184;18.966;2023-03-14T07:54:27;5.80;;;0.20;;
57889;SDS011;43707;50.184;18.966;2023-03-14T07:56:52;3.30;;;0.20;;
57889;SDS011;43707;50.184;18.966;2023-03-14T07:59:18;1.90;;;0.40;;
57889;SDS011;43707;50.184;18.966;2023-03-14T08:01:43;0.50;;;0.30;;
57889;SDS011;43707;50.184;18.966;2023-03-14T08:04:09;0.60;;;0.20;;
57889;SDS011;43707;50.184;18.966;2023-03-14T08:06:35;0.30;;;0.30;;
57889;SDS011;43707;50.184;18.966;2023-03-14T08:09:01;2.70;;;0.20;;
57889;SDS011;43707;50.184;18.966;2023-03-14T08:11:27;5.40;;;0.20;;
57889;SDS011;43707;50.184;18.966;2023-03-14T08:13:53;0.30;;;0.30;;
57889;SDS011;43707;50.184;18.966;2023-03-14T08:16:18;0.20;;;0.20;;
57889;SDS011;43707;50.184;18.966;2023-03-14T08:18:44;0.20;;;0.20;;
57889;SDS011;43707;50.184;18.966;2023-03-14T08:21:10;0.20;;;0.20;;
57889;SDS011;43707;50.184;18.966;2023-03-14T08:23:36;0.40;;;0.20;;
57889;SDS011;43707;50.184;18.966;2023-03-14T08:26:01;0.40;;;0.20;;
57889;SDS011;43707;50.184;18.966;2023-03-14T08:28:27;0.40;;;0.30;;
57889;SDS011;43707;50.184;18.966;2023-03-14T08:30:56;0.00;;;0.00;;
57889;SDS011;43707;50.184;18.966;2023-03-14T08:33:22;0.30;;;0.10;;
57889;SDS011;43707;50.184;18.966;2023-03-14T08:35:51;0.20;;;0.20;;
57889;SDS011;43707;50.184;18.966;2023-03-14T08:38:20;0.40;;;0.20;;
57889;SDS011;43707;50.184;18.966;2023-03-14T08:40:45;0.30;;;0.10;;
57889;SDS011;43707;50.184;18.966;2023-03-14T08:43:11;0.10;;;0.10;;
57889;SDS011;43707;50.184;18.966;2023-03-14T08:45:36;0.10;;;0.10;;
57889;SDS011;43707;50.184;18.966;2023-03-14T08:48:01;0.20;;;0.10;;
57889;SDS011;43707;50.184;18.966;2023-03-14T08:50:27;0.40;;;0.20;;
57889;SDS011;43707;50.184;18.966;2023-03-14T08:52:52;1.10;;;0.20;;
57889;SDS011;43707;50.184;18.966;2023-03-14T08:55:18;0.50;;;0.30;;
57889;SDS011;43707;50.184;18.966;2023-03-14T08:57:43;0.70;;;0.10;;
57889;SDS011;43707;50.184;18.966;2023-03-14T09:00:09;0.90;;;0.50;;
57889;SDS011;43707;50.184;18.966;2023-03-14T09:02:37;0.10;;;0.10;;
57889;SDS011;43707;50.184;18.966;2023-03-14T09:05:03;0.20;;;0.20;;
57889;SDS011;43707;50.184;18.966;2023-03-14T09:07:29;0.10;;;0.10;;
57889;SDS011;43707;50.184;18.966;2023-03-14T09:09:54;0.50;;;0.20;;
57889;SDS011;43707;50.184;18.966;2023-03-14T09:12:20;0.50;;;0.20;;
57889;SDS011;43707;50.184;18.966;2023-03-14T09:14:45;0.30;;;0.20;;
57889;SDS011;43707;50.184;18.966;2023-03-14T09:17:10;0.10;;;0.10;;
57889;SDS011;43707;50.184;18.966;2023-03-14T09:19:36;0.10;;;0.10;;
57889;SDS011;43707;50.184;18.966;2023-03-14T09:22:01;0.20;;;0.20;;
57889;SDS011;43707;50.184;18.966;2023-03-14T09:24:28;0.10;;;0.10;;
57889;SDS011;43707;50.184;18.966;2023-03-14T09:26:54;0.30;;;0.20;;
57889;SDS011;43707;50.184;18.966;2023-03-14T09:29:21;0.20;;;0.20;;
57889;SDS011;43707;50.184;18.966;2023-03-14T09:31:46;0.30;;;0.10;;
57889;SDS011;43707;50.184;18.966;2023-03-14T09:34:12;0.20;;;0.20;;
57889;SDS011;43707;50.184;18.966;2023-03-14T09:36:37;0.10;;;0.10;;
57889;SDS011;43707;50.184;18.966;2023-03-14T09:39:04;0.20;;;0.20;;
57889;SDS011;43707;50.184;18.966;2023-03-14T09:41:34;0.20;;;0.10;;
57889;SDS011;43707;50.184;18.966;2023-03-14T09:46:41;3.10;;;0.10;;
57889;SDS011;43707;50.184;18.966;2023-03-14T09:49:10;0.80;;;0.10;;
57889;SDS011;43707;50.184;18.966;2023-03-14T09:51:37;0.10;;;0.10;;
57889;SDS011;43707;50.184;18.966;2023-03-14T09:54:03;0.10;;;0.10;;
57889;SDS011;43707;50.184;18.966;2023-03-14T09:56:31;0.20;;;0.20;;
57889;SDS011;43707;50.184;18.966;2023-03-14T09:58:58;0.20;;;0.20;;
57889;SDS011;43707;50.184;18.966;2023-03-14T10:01:26;0.10;;;0.10;;
57889;SDS011;43707;50.184;18.966;2023-03-14T10:03:54;0.30;;;0.10;;
57889;SDS011;43707;50.184;18.966;2023-03-14T10:06:23;0.20;;;0.20;;
57889;SDS011;43707;50.184;18.966;2023-03-14T10:08:50;0.20;;;0.20;;
57889;SDS011;43707;50.184;18.966;2023-03-14T10:11:16;0.10;;;0.10;;
57889;SDS011;43707;50.184;18.966;2023-03-14T10:13:49;0.10;;;0.10;;
57889;SDS011;43707;50.184;18.966;2023-03-14T10:16:29;1.10;;;0.10;;
57889;SDS011;43707;50.184;18.966;2023-03-14T10:19:01;0.10;;;0.10;;
57889;SDS011;43707;50.184;18.966;2023-03-14T10:21:29;3.50;;;0.20;;
57889;SDS011;43707;50.184;18.966;2023-03-14T10:24:07;0.10;;;0.10;;
57889;SDS011;43707;50.184;18.966;2023-03-14T10:26:52;0.10;;;0.10;;
57889;SDS011;43707;50.184;18.966;2023-03-14T10:29:19;0.10;;;0.10;;
57889;SDS011;43707;50.184;18.966;2023-03-14T10:31:50;1.00;;;0.10;;
57889;SDS011;43707;50.184;18.966;2023-03-14T10:34:20;0.00;;;0.00;;
57889;SDS011;43707;50.184;18.966;2023-03-14T10:36:53;0.10;;;0.10;;
57889;SDS011;43707;50.184;18.966;2023-03-14T10:39:25;0.40;;;0.20;;
57889;SDS011;43707;50.184;18.966;2023-03-14T10:41:54;0.20;;;0.20;;
57889;SDS011;43707;50.184;18.966;2023-03-14T10:44:23;0.60;;;0.10;;
57889;SDS011;43707;50.184;18.966;2023-03-14T10:46:56;0.10;;;0.10;;
57889;SDS011;43707;50.184;18.966;2023-03-14T10:49:35;0.10;;;0.10;;
57889;SDS011;43707;50.184;18.966;2023-03-14T10:52:23;0.10;;;0.10;;
57889;SDS011;43707;50.184;18.966;2023-03-14T10:55:10;0.20;;;0.20;;
57889;SDS011;43707;50.184;18.966;2023-03-14T10:57:40;0.10;;;0.10;;
57889;SDS011;43707;50.184;18.966;2023-03-14T11:00:12;0.10;;;0.10;;
57889;SDS011;43707;50.184;18.966;2023-03-14T11:05:34;0.20;;;0.20;;
57889;SDS011;43707;50.184;18.966;2023-03-14T11:08:19;0.10;;;0.10;;
57889;SDS011;43707;50.184;18.966;2023-03-14T11:10:51;0.10;;;0.10;;
57889;SDS011;43707;50.184;18.966;2023-03-14T11:16:06;0.10;;;0.10;;
57889;SDS011;43707;50.184;18.966;2023-03-14T11:19:00;6.00;;;0.30;;
57889;SDS011;43707;50.184;18.966;2023-03-14T11:24:40;0.10;;;0.10;;
57889;SDS011;43707;50.184;18.966;2023-03-14T11:29:55;0.00;;;0.00;;
57889;SDS011;43707;50.184;18.966;2023-03-14T11:33:28;0.10;;;0.10;;
57889;SDS011;43707;50.184;18.966;2023-03-14T11:35:43;0.30;;;0.20;;
57889;SDS011;43707;50.184;18.966;2023-03-14T11:38:15;0.20;;;0.10;;
57889;SDS011;43707;50.184;18.966;2023-03-14T11:40:50;0.10;;;0.10;;
57889;SDS011;43707;50.184;18.966;2023-03-14T11:43:18;1.60;;;0.10;;
57889;SDS011;43707;50.184;18.966;2023-03-14T11:45:47;0.10;;;0.10;;
57889;SDS011;43707;50.184;18.966;2023-03-14T11:48:24;0.10;;;0.10;;
57889;SDS011;43707;50.184;18.966;2023-03-14T11:51:27;0.20;;;0.20;;
57889;SDS011;43707;50.184;18.966;2023-03-14T11:54:18;0.30;;;0.10;;
57889;SDS011;43707;50.184;18.966;2023-03-14T11:56:52;0.40;;;0.20;;
57889;SDS011;43707;50.184;18.966;2023-03-14T12:04:47;0.10;;;0.10;;
57889;SDS011;43707;50.184;18.966;2023-03-14T12:07:19;0.60;;;0.30;;
57889;SDS011;43707;50.184;18.966;2023-03-14T12:09:47;0.30;;;0.20;;
57889;SDS011;43707;50.184;18.966;2023-03-14T12:12:14;0.20;;;0.10;;
57889;SDS011;43707;50.184;18.966;2023-03-14T12:14:54;0.50;;;0.20;;
57889;SDS011;43707;50.184;18.966;2023-03-14T12:17:34;0.30;;;0.20;;
57889;SDS011;43707;50.184;18.966;2023-03-14T12:22:50;0.20;;;0.20;;
57889;SDS011;43707;50.184;18.966;2023-03-14T12:25:19;0.30;;;0.30;;
57889;SDS011;43707;50.184;18.966;2023-03-14T12:30:30;0.70;;;0.20;;
57889;SDS011;43707;50.184;18.966;2023-03-14T12:35:45;0.20;;;0.20;;
57889;SDS011;43707;50.184;18.966;2023-03-14T12:38:15;0.10;;;0.10;;
57889;SDS011;43707;50.184;18.966;2023-03-14T12:41:06;0.30;;;0.20;;
57889;SDS011;43707;50.184;18.966;2023-03-14T12:43:39;0.20;;;0.20;;
57889;SDS011;43707;50.184;18.966;2023-03-14T12:46:15;0.40;;;0.30;;
57889;SDS011;43707;50.184;18.966;2023-03-14T12:48:47;0.10;;;0.10;;
57889;SDS011;43707;50.184;18.966;2023-03-14T12:51:18;0.50;;;0.20;;
57889;SDS011;43707;50.184;18.966;2023-03-14T12:53:54;0.30;;;0.30;;
57889;SDS011;43707;50.184;18.966;2023-03-14T13:01:54;0.30;;;0.20;;
57889;SDS011;43707;50.184;18.966;2023-03-14T13:04:44;0.20;;;0.20;;
57889;SDS011;43707;50.184;18.966;2023-03-14T13:12:29;0.20;;;0.20;;
57889;SDS011;43707;50.184;18.966;2023-03-14T13:15:00;0.60;;;0.30;;
57889;SDS011;43707;50.184;18.966;2023-03-14T13:17:31;0.80;;;0.40;;
57889;SDS011;43707;50.184;18.966;2023-03-14T13:20:00;0.40;;;0.30;;
57889;SDS011;43707;50.184;18.966;2023-03-14T13:22:37;0.60;;;0.40;;
57889;SDS011;43707;50.184;18.966;2023-03-14T13:25:05;0.20;;;0.20;;
57889;SDS011;43707;50.184;18.966;2023-03-14T13:27:33;0.20;;;0.20;;
57889;SDS011;43707;50.184;18.966;2023-03-14T13:30:05;0.30;;;0.30;;
57889;SDS011;43707;50.184;18.966;2023-03-14T13:32:51;0.30;;;0.20;;
57889;SDS011;43707;50.184;18.966;2023-03-14T13:35:19;0.10;;;0.10;;
57889;SDS011;43707;50.184;18.966;2023-03-14T13:37:47;0.40;;;0.30;;
57889;SDS011;43707;50.184;18.966;2023-03-14T13:40:24;0.30;;;0.30;;
57889;SDS011;43707;50.184;18.966;2023-03-14T13:43:05;0.30;;;0.30;;
57889;SDS011;43707;50.184;18.966;2023-03-14T13:45:52;1.60;;;0.20;;
57889;SDS011;43707;50.184;18.966;2023-03-14T13:48:21;0.30;;;0.30;;
57889;SDS011;43707;50.184;18.966;2023-03-14T13:50:54;0.20;;;0.20;;
57889;SDS011;43707;50.184;18.966;2023-03-14T13:53:22;0.20;;;0.20;;
57889;SDS011;43707;50.184;18.966;2023-03-14T13:55:48;1.60;;;0.20;;
57889;SDS011;43707;50.184;18.966;2023-03-14T13:58:21;0.40;;;0.20;;
57889;SDS011;43707;50.184;18.966;2023-03-14T14:00:56;0.30;;;0.30;;
57889;SDS011;43707;50.184;18.966;2023-03-14T14:03:24;0.10;;;0.10;;
57889;SDS011;43707;50.184;18.966;2023-03-14T14:05:49;0.20;;;0.20;;
57889;SDS011;43707;50.184;18.966;2023-03-14T14:08:15;0.40;;;0.30;;
57889;SDS011;43707;50.184;18.966;2023-03-14T14:10:40;0.30;;;0.30;;
57889;SDS011;43707;50.184;18.966;2023-03-14T14:13:06;0.90;;;0.40;;
57889;SDS011;43707;50.184;18.966;2023-03-14T14:15:37;0.80;;;0.60;;
57889;SDS011;43707;50.184;18.966;2023-03-14T14:18:07;0.50;;;0.30;;
57889;SDS011;43707;50.184;18.966;2023-03-14T14:20:38;2.50;;;0.50;;
57889;SDS011;43707;50.184;18.966;2023-03-14T14:23:12;0.80;;;0.50;;
57889;SDS011;43707;50.184;18.966;2023-03-14T14:25:38;1.50;;;0.70;;
57889;SDS011;43707;50.184;18.966;2023-03-14T14:30:59;1.80;;;1.00;;
57889;SDS011;43707;50.184;18.966;2023-03-14T14:36:27;1.90;;;0.90;;
57889;SDS011;43707;50.184;18.966;2023-03-14T14:38:58;1.70;;;0.90;;
57889;SDS011;43707;50.184;18.966;2023-03-14T14:41:43;2.50;;;1.20;;
57889;SDS011;43707;50.184;18.966;2023-03-14T14:44:12;2.30;;;0.80;;
57889;SDS011;43707;50.184;18.966;2023-03-14T14:46:39;1.60;;;0.90;;
57889;SDS011;43707;50.184;18.966;2023-03-14T14:49:06;1.00;;;0.70;;
57889;SDS011;43707;50.184;18.966;2023-03-14T14:51:39;1.70;;;0.80;;
57889;SDS011;43707;50.184;18.966;2023-03-14T14:54:10;1.30;;;0.70;;
57889;SDS011;43707;50.184;18.966;2023-03-14T14:56:38;1.10;;;0.70;;
57889;SDS011;43707;50.184;18.966;2023-03-14T14:59:04;0.90;;;0.60;;
57889;SDS011;43707;50.184;18.966;2023-03-14T15:01:38;1.10;;;0.50;;
57889;SDS011;43707;50.184;18.966;2023-03-14T15:04:10;1.70;;;0.80;;
57889;SDS011;43707;50.184;18.966;2023-03-14T15:06:39;1.10;;;0.60;;
57889;SDS011;43707;50.184;18.966;2023-03-14T15:09:05;1.10;;;0.40;;
57889;SDS011;43707;50.184;18.966;2023-03-14T15:11:30;0.40;;;0.40;;
57889;SDS011;43707;50.184;18.966;2023-03-14T15:13:56;0.70;;;0.50;;
57889;SDS011;43707;50.184;18.966;2023-03-14T15:16:22;0.40;;;0.30;;
57889;SDS011;43707;50.184;18.966;2023-03-14T15:18:54;0.40;;;0.40;;
57889;SDS011;43707;50.184;18.966;2023-03-14T15:21:21;0.60;;;0.40;;
57889;SDS011;43707;50.184;18.966;2023-03-14T15:23:47;0.20;;;0.20;;
57889;SDS011;43707;50.184;18.966;2023-03-14T15:26:13;0.30;;;0.20;;
57889;SDS011;43707;50.184;18.966;2023-03-14T15:28:40;0.40;;;0.40;;
57889;SDS011;43707;50.184;18.966;2023-03-14T15:31:08;0.30;;;0.30;;
57889;SDS011;43707;50.184;18.966;2023-03-14T15:33:34;0.50;;;0.30;;
57889;SDS011;43707;50.184;18.966;2023-03-14T15:36:00;0.40;;;0.40;;